M I D A S
Marine Information and Data Acquisition System
Tripno 873 of the Zeeleeuw from 2005-03-30 06:33:14 to 2005-03-30 12:54:34
Back to CruiseResearch ActivitiesStationsMapUnderway DataData graphs

EquipmentUnitsComment
TimeDGPSUTC
LatitudeDGPSDM.mWGS84
LongitudeDGPSDM.mWGS84
HeadingGyrodeg 
SOGDGPSknotsSpeed over ground
COGDGPSdegCourse over ground
DepthEcho soundermeters200 kHz
Missing or incorrect values are displayed as -999
Navigation data collected by the RV Zeeleeuw from 2005-03-30 06:33:59 to 2005-03-30 13:01:34
Time Latitude Longitude Heading SOG COG Depth
2005-03-30 06:35:05 51°13.615 2°56.029 114.8 3.7 293 -999
2005-03-30 06:36:05 51°13.653 2°55.918 127.7 5.1 304 -999
2005-03-30 06:37:05 51°13.694 2°55.805 112.6 4.8 295 -999
2005-03-30 06:38:05 51°13.709 2°55.762 62.8 0.9 21 -999
2005-03-30 06:39:05 51°13.707 2°55.739 28.6 0.5 306 -999
2005-03-30 06:40:04 51°13.768 2°55.69 331.9 5.5 328 9.9
2005-03-30 06:41:05 51°13.876 2°55.595 336.8 7.8 333 10
2005-03-30 06:42:05 51°14.004 2°55.504 339.6 8.6 336 10
2005-03-30 06:43:05 51°14.137 2°55.406 338.8 9.6 334 10
2005-03-30 06:44:04 51°14.275 2°55.24 318.6 10.8 313 10.4
2005-03-30 06:45:04 51°14.388 2°54.992 309.3 12 305 10.3
2005-03-30 06:46:05 51°14.562 2°54.796 342.2 13.3 334 9.9
2005-03-30 06:47:05 51°14.763 2°54.633 339.5 13.7 331 9.6
2005-03-30 06:48:04 51°14.966 2°54.468 339.8 13.8 333 8.8
2005-03-30 06:49:05 51°15.168 2°54.297 336.1 13.7 330 8.7
2005-03-30 06:50:05 51°15.374 2°54.129 339.5 13.9 332 9.4
2005-03-30 06:51:04 51°15.577 2°53.955 339.6 13.9 333 10.1
2005-03-30 06:52:05 51°15.782 2°53.781 339.4 13.8 333 10.8
2005-03-30 06:53:05 51°15.983 2°53.611 339 13.7 332 11.2
2005-03-30 06:54:04 51°16.184 2°53.443 339.2 13.8 333 11.6
2005-03-30 06:55:05 51°16.391 2°53.273 339.3 13.9 333 12
2005-03-30 06:56:04 51°16.595 2°53.105 339.1 13.9 333 11.6
2005-03-30 06:57:05 51°16.803 2°52.937 339.5 13.9 334 9.8
2005-03-30 06:58:05 51°17.006 2°52.77 339.1 13.9 334 9.4
2005-03-30 06:59:04 51°17.214 2°52.613 344 13.8 338 9.5
2005-03-30 07:00:05 51°17.438 2°52.517 357.6 13.8 351 10.1
2005-03-30 07:01:05 51°17.665 2°52.469 358.5 13.8 353 10.1
2005-03-30 07:02:04 51°17.889 2°52.413 358.2 13.7 352 10
2005-03-30 07:03:05 51°18.116 2°52.407 13.5 13.5 7 10.4
2005-03-30 07:04:05 51°18.34 2°52.447 13.4 13.6 6 10.9
2005-03-30 07:05:05 51°18.555 2°52.523 32 13.3 19 11.1
2005-03-30 07:06:04 51°18.664 2°52.805 72.2 12.8 66 11.3
2005-03-30 07:07:04 51°18.737 2°53.125 78.5 12.9 74 11.3
2005-03-30 07:08:05 51°18.794 2°53.457 78.6 12.9 74 11.2
2005-03-30 07:09:04 51°18.862 2°53.777 73.8 12.8 69 11.3
2005-03-30 07:10:04 51°18.938 2°54.097 74.7 12.9 70 11.2
2005-03-30 07:11:04 51°19.014 2°54.417 74.6 12.9 69 11.2
2005-03-30 07:12:05 51°19.088 2°54.74 75.3 12.9 71 11.3
2005-03-30 07:13:04 51°19.16 2°55.057 75.4 12.7 71 11.1
2005-03-30 07:14:05 51°19.231 2°55.379 75.4 12.8 70 11
2005-03-30 07:15:04 51°19.302 2°55.695 74.8 12.8 70 10.8
2005-03-30 07:16:05 51°19.375 2°56.018 74.8 12.8 70 10.6
2005-03-30 07:17:04 51°19.445 2°56.337 75.1 12.8 71 10.5
2005-03-30 07:18:04 51°19.518 2°56.657 75 12.8 71 10.4
2005-03-30 07:19:04 51°19.59 2°56.976 73.6 12.8 69 10.1
2005-03-30 07:20:05 51°19.667 2°57.294 74 12.8 69 10.1
2005-03-30 07:21:05 51°19.747 2°57.612 74.9 12.9 68 9.9
2005-03-30 07:22:05 51°19.826 2°57.931 74 12.9 68 9.9
2005-03-30 07:23:04 51°19.907 2°58.245 73.3 12.9 65 9.8
2005-03-30 07:24:04 51°20.001 2°58.553 71.8 12.9 66 9.8
2005-03-30 07:25:04 51°20.088 2°58.865 72 12.8 66 9.7
2005-03-30 07:26:04 51°20.175 2°59.175 72.6 12.8 66 9.9
2005-03-30 07:27:04 51°20.263 2°59.482 72.2 12.6 65 9.7
2005-03-30 07:28:05 51°20.349 2°59.79 72.4 12.6 67 9.7
2005-03-30 07:29:04 51°20.432 3°0.096 71.9 12.6 66 9.6
2005-03-30 07:30:05 51°20.513 3°0.405 74.2 12.5 68 9.5
2005-03-30 07:31:05 51°20.592 3°0.709 74.1 12.4 68 9.6
2005-03-30 07:32:04 51°20.667 3°1.012 74 12.4 68 9.6
2005-03-30 07:33:05 51°20.741 3°1.32 74.7 12.3 68 9.9
2005-03-30 07:34:04 51°20.813 3°1.622 74.1 12.3 69 9.7
2005-03-30 07:35:05 51°20.89 3°1.929 73.4 12.4 67 9.8
2005-03-30 07:36:04 51°20.965 3°2.232 74.2 12.3 68 9.8
2005-03-30 07:37:05 51°21.041 3°2.54 74.1 12.3 68 9.8
2005-03-30 07:38:05 51°21.115 3°2.843 74.4 12.3 69 9.9
2005-03-30 07:39:05 51°21.189 3°3.149 73.6 12.3 69 9.9
2005-03-30 07:40:04 51°21.257 3°3.453 76.2 12.3 70 10.1
2005-03-30 07:41:04 51°21.321 3°3.761 75.8 12.3 71 10.1
2005-03-30 07:42:05 51°21.386 3°4.072 76.2 12.2 72 10.1
2005-03-30 07:43:04 51°21.449 3°4.378 76.6 12.2 72 10.1
2005-03-30 07:44:05 51°21.514 3°4.687 76.2 12.1 72 10.2
2005-03-30 07:45:05 51°21.578 3°4.993 75.6 12.2 71 10.2
2005-03-30 07:46:05 51°21.641 3°5.299 76.1 12.1 72 10.1
2005-03-30 07:47:05 51°21.703 3°5.602 76.2 12 71 10.2
2005-03-30 07:48:05 51°21.764 3°5.902 76 11.9 71 10.3
2005-03-30 07:49:04 51°21.825 3°6.199 76.4 11.9 72 10.5
2005-03-30 07:50:05 51°21.88 3°6.503 80.4 11.8 75 10.6
2005-03-30 07:51:04 51°21.919 3°6.804 83.8 11.7 78 10.8
2005-03-30 07:52:05 51°21.958 3°7.103 87.2 11.3 81 10.7
2005-03-30 07:53:04 51°21.972 3°7.398 88.2 11.2 84 10.9
2005-03-30 07:54:05 51°21.987 3°7.697 87.2 11.2 85 10.9
2005-03-30 07:55:05 51°21.999 3°7.995 87.5 11.2 86 10.7
2005-03-30 07:56:05 51°22.014 3°8.294 85.1 11.4 86 10.7
2005-03-30 07:57:04 51°22.031 3°8.593 84.7 11.4 86 10.7
2005-03-30 07:58:05 51°22.048 3°8.896 85.7 11.4 84 11.1
2005-03-30 07:59:04 51°22.065 3°9.196 85.2 11.4 85 11.4
2005-03-30 08:00:05 51°22.083 3°9.502 85 11.5 85 11.9
2005-03-30 08:01:05 51°22.111 3°9.802 80.7 11.4 79 12.3
2005-03-30 08:02:04 51°22.146 3°10.096 81 11.4 79 13
2005-03-30 08:03:05 51°22.181 3°10.373 80.9 9.1 79 13.7
2005-03-30 08:04:04 51°22.208 3°10.585 81.3 8.7 78 15.4
2005-03-30 08:05:05 51°22.247 3°10.853 82 11.3 77 17.2
2005-03-30 08:06:05 51°22.291 3°11.151 81.7 11.4 78 15
2005-03-30 08:07:05 51°22.336 3°11.445 81.3 -999 -999 14.7
2005-03-30 08:08:05 51°22.382 3°11.74 81.6 11.4 77 14.4
2005-03-30 08:09:04 51°22.428 3°12.032 81.2 11.4 75 13.9
2005-03-30 08:10:05 51°22.475 3°12.33 81.3 11.5 75 13.2
2005-03-30 08:11:04 51°22.544 3°12.612 72.2 11.6 64 12.4
2005-03-30 08:12:05 51°22.659 3°12.862 53.4 11.9 42 11.7
2005-03-30 08:13:04 51°22.828 3°13.03 37.9 12.2 25 10.7
2005-03-30 08:14:05 51°23.039 3°13.034 1.3 13.3 349 10.5
2005-03-30 08:15:05 51°23.258 3°12.952 357.8 13.6 346 10.9
2005-03-30 08:16:05 51°23.47 3°12.966 22.2 12.7 11 10.1
2005-03-30 08:17:05 51°23.669 3°13.069 29.1 12.6 19 10.1
2005-03-30 08:18:05 51°23.868 3°13.177 29.1 12.6 18 10.3
2005-03-30 08:19:05 51°24.067 3°13.284 30.5 12.7 19 12
2005-03-30 08:20:05 51°24.269 3°13.387 30.1 12.7 18 15.1
2005-03-30 08:21:04 51°24.472 3°13.479 29.4 12.7 14 17.2
2005-03-30 08:22:05 51°24.694 3°13.411 355.1 14.1 340 15.4
2005-03-30 08:23:05 51°24.904 3°13.206 336.6 15.2 321 12.4
2005-03-30 08:24:05 51°25.057 3°12.878 307.9 15.6 298 11
2005-03-30 08:25:05 51°25.14 3°12.482 293.9 15.6 288 9.8
2005-03-30 08:26:05 51°25.182 3°12.077 273.9 15.5 277 9.2
2005-03-30 08:27:05 51°25.165 3°11.669 268 15.2 264 8.7
2005-03-30 08:28:05 51°25.121 3°11.271 263 15.3 262 8.6
2005-03-30 08:29:04 51°25.068 3°10.882 254 15 252 8.1
2005-03-30 08:30:05 51°25.021 3°10.49 265.9 14.8 263 7.5
2005-03-30 08:31:05 51°24.957 3°10.118 252.7 14.5 253 7.2
2005-03-30 08:32:05 51°24.893 3°9.745 256.5 14.4 252 7.3
2005-03-30 08:33:05 51°24.835 3°9.373 264.3 14.5 260 7.5
2005-03-30 08:34:05 51°24.79 3°8.991 262.6 14.6 258 7.7
2005-03-30 08:35:05 51°24.788 3°8.603 276.5 14.6 271 7.9
2005-03-30 08:36:05 51°24.765 3°8.215 270.5 14.8 268 8.3
2005-03-30 08:37:05 51°24.761 3°7.822 272.1 14.8 268 8.8
2005-03-30 08:38:05 51°24.837 3°7.457 304.7 14.5 301 8.9
2005-03-30 08:39:05 51°25.019 3°7.233 344 13.8 333 8.3
2005-03-30 08:40:05 51°25.236 3°7.185 1.2 13.1 353 7.9
2005-03-30 08:41:05 51°25.455 3°7.122 2.3 13.4 354 8.4
2005-03-30 08:42:05 51°25.674 3°7.166 14.2 13.2 10 8.6
2005-03-30 08:43:05 51°25.894 3°7.196 14.5 13.2 6 8.5
2005-03-30 08:44:05 51°26.112 3°7.22 12.9 13 6 8.1
2005-03-30 08:45:05 51°26.333 3°7.243 9.5 13.5 1 9.1
2005-03-30 08:46:05 51°26.556 3°7.276 13.3 13.5 5 9.6
2005-03-30 08:47:05 51°26.781 3°7.302 12.3 13.5 4 9.9
2005-03-30 08:48:05 51°27.006 3°7.327 12.4 13.6 4 10.3
2005-03-30 08:49:05 51°27.232 3°7.353 12.7 13.6 4 10.5
2005-03-30 08:50:05 51°27.458 3°7.38 12.3 13.7 4 11.3
2005-03-30 08:51:04 51°27.684 3°7.405 12.4 13.8 4 11.9
2005-03-30 08:52:05 51°27.915 3°7.426 10.7 13.8 -999 12.5
2005-03-30 08:53:04 51°28.142 3°7.383 359.8 13.9 352 13.2
2005-03-30 08:54:04 51°28.371 3°7.33 357.8 14 350 13.9
2005-03-30 08:55:05 51°28.602 3°7.265 357.8 13.9 350 14.5
2005-03-30 08:56:05 51°28.818 3°7.14 343.7 13.9 335 14.8
2005-03-30 08:57:05 51°29.028 3°6.984 341.9 14 334 15.3
2005-03-30 08:58:04 51°29.232 3°6.812 339 14 331 16.4
2005-03-30 08:59:05 51°29.437 3°6.629 338.1 14 330 18
2005-03-30 09:00:05 51°29.64 3°6.445 338.4 14 331 20
2005-03-30 09:01:05 51°29.844 3°6.264 338.8 14 331 21.7
2005-03-30 09:02:05 51°30.047 3°6.084 339 14 331 22.5
2005-03-30 09:03:05 51°30.25 3°5.903 339.3 13.9 331 23
2005-03-30 09:04:05 51°30.45 3°5.721 339.5 13.9 331 22.3
2005-03-30 09:05:05 51°30.651 3°5.538 339.8 13.9 330 21.2
2005-03-30 09:06:05 51°30.851 3°5.357 338.8 13.7 330 22.8
2005-03-30 09:07:05 51°31.05 3°5.176 338.8 13.7 330 23.5
2005-03-30 09:08:04 51°31.247 3°4.995 339.5 13.8 331 25.8
2005-03-30 09:09:04 51°31.446 3°4.814 339.3 13.7 331 27.3
2005-03-30 09:10:05 51°31.647 3°4.631 339.2 13.8 331 27.3
2005-03-30 09:11:05 51°31.848 3°4.451 338.3 13.9 331 27.6
2005-03-30 09:12:04 51°32.002 3°4.176 314.1 14 307 27.9
2005-03-30 09:13:05 51°32.137 3°3.863 309.1 14.2 302 27.7
2005-03-30 09:14:05 51°32.256 3°3.537 306.6 14.1 299 28.3
2005-03-30 09:15:05 51°32.376 3°3.212 307 14.3 300 27.8
2005-03-30 09:16:04 51°32.495 3°2.886 307.2 14.3 300 25.2
2005-03-30 09:17:04 51°32.618 3°2.558 307.7 14.3 301 20.5
2005-03-30 09:18:05 51°32.724 3°2.219 293.3 14.2 286 20.2
2005-03-30 09:19:05 51°32.731 3°1.836 271.1 14.5 267 20.3
2005-03-30 09:20:04 51°32.668 3°1.468 255.3 14.5 253 22.1
2005-03-30 09:21:05 51°32.594 3°1.097 255.3 14.6 253 24.2
2005-03-30 09:22:05 51°32.51 3°0.735 252.5 14.6 248 25.8
2005-03-30 09:23:05 51°32.427 3°0.375 253.7 14.4 251 28.3
2005-03-30 09:24:05 51°32.336 3°0.017 249.6 14.5 247 29.1
2005-03-30 09:25:05 51°32.239 2°59.666 249.8 14.4 246 29.5
2005-03-30 09:26:05 51°32.142 2°59.312 250 14.4 246 31.2
2005-03-30 09:27:05 51°32.046 2°58.958 249.8 14.6 247 32.5
2005-03-30 09:28:04 51°31.951 2°58.605 250.2 14.6 249 34.4
2005-03-30 09:29:05 51°31.855 2°58.246 250.2 14.5 248 33.9
2005-03-30 09:30:04 51°31.762 2°57.89 250.7 14.5 248 35.2
2005-03-30 09:31:05 51°31.666 2°57.528 250.4 14.6 247 32.4
2005-03-30 09:32:05 51°31.565 2°57.167 250.4 14.7 247 29.1
2005-03-30 09:33:05 51°31.465 2°56.804 250.1 14.9 247 27.7
2005-03-30 09:34:05 51°31.362 2°56.44 249.5 15 245 24.6
2005-03-30 09:35:05 51°31.272 2°56.073 262.6 14.7 258 19.9
2005-03-30 09:36:05 51°31.258 2°55.687 282.5 14.4 276 15
2005-03-30 09:37:04 51°31.35 2°55.349 313.7 13.9 303 16.1
2005-03-30 09:38:05 51°31.514 2°55.093 327.7 13.6 317 17.8
2005-03-30 09:39:04 51°31.693 2°55.11 45.4 11.8 45 19.4
2005-03-30 09:40:05 51°31.815 2°55.376 60.1 12.5 56 19.3
2005-03-30 09:41:05 51°31.933 2°55.649 57.3 12.4 54 17.7
2005-03-30 09:42:05 51°32.055 2°55.92 57.2 12.4 54 18.5
2005-03-30 09:43:05 51°32.183 2°56.184 54.7 12.5 53 18.6
2005-03-30 09:44:05 51°32.312 2°56.444 55.3 12.5 52 20.1
2005-03-30 09:45:04 51°32.439 2°56.705 55 12.6 52 19.3
2005-03-30 09:46:05 51°32.568 2°56.971 55.2 12.5 52 17.3
2005-03-30 09:47:05 51°32.697 2°57.237 54.5 12.6 51 16.7
2005-03-30 09:48:05 51°32.826 2°57.5 55.8 12.5 53 19.2
2005-03-30 09:49:05 51°32.953 2°57.766 55.5 12.5 53 19.4
2005-03-30 09:50:05 51°33.08 2°58.029 55.6 12.4 53 15.6
2005-03-30 09:51:04 51°33.205 2°58.292 55.1 12.5 53 16.6
2005-03-30 09:52:05 51°33.333 2°58.558 54.7 12.5 53 17.2
2005-03-30 09:53:05 51°33.465 2°58.817 52.8 12.6 51 14.9
2005-03-30 09:54:05 51°33.598 2°59.077 52.9 12.5 51 17
2005-03-30 09:55:05 51°33.73 2°59.338 52.7 12.6 50 16.2
2005-03-30 09:56:05 51°33.861 2°59.6 53.6 12.6 50 14.9
2005-03-30 09:57:05 51°33.991 2°59.861 53.4 12.4 51 15.8
2005-03-30 09:58:05 51°34.12 3°0.122 53.6 12.5 52 14.8
2005-03-30 09:59:05 51°34.247 3°0.377 53.4 12.3 52 15.1
2005-03-30 10:00:04 51°34.373 3°0.633 53.5 12.4 52 14
2005-03-30 10:01:04 51°34.5 3°0.89 53.1 12.3 51 15.3
2005-03-30 10:02:05 51°34.656 3°1.066 15.6 11.6 15 15.9
2005-03-30 10:03:05 51°34.831 3°0.886 329.4 13.1 320 18.5
2005-03-30 10:04:05 51°34.996 3°0.647 327.7 13.4 318 19.1
2005-03-30 10:05:05 51°35.158 3°0.398 321.9 13.5 310 26.1
2005-03-30 10:06:05 51°35.161 3°0.036 259.3 14.5 252 23.9
2005-03-30 10:07:05 51°35.025 2°59.699 237.3 15.1 235 25.4
2005-03-30 10:08:04 51°34.9 2°59.357 243.8 15 240 27.3
2005-03-30 10:09:05 51°34.762 2°59.013 240.4 15 237 25.6
2005-03-30 10:10:05 51°34.626 2°58.68 240.2 15 239 26.5
2005-03-30 10:11:05 51°34.488 2°58.341 240.5 15.1 237 27
2005-03-30 10:12:05 51°34.35 2°58.002 241.7 15.2 237 25.9
2005-03-30 10:13:05 51°34.209 2°57.659 240.7 15.1 236 27.1
2005-03-30 10:14:05 51°34.071 2°57.321 240.9 15.3 238 26.8
2005-03-30 10:15:05 51°33.931 2°56.982 241.2 15.2 236 25.9
2005-03-30 10:16:05 51°33.789 2°56.639 240.5 15.4 238 27
2005-03-30 10:17:05 51°33.651 2°56.299 242.1 15.4 237 27.5
2005-03-30 10:18:05 51°33.509 2°55.959 240.9 15.2 234 26.1
2005-03-30 10:19:04 51°33.37 2°55.619 241.9 15.5 236 24
2005-03-30 10:20:05 51°33.23 2°55.274 241.2 15.3 236 24.2
2005-03-30 10:21:04 51°33.091 2°54.936 240.9 15.4 236 24.4
2005-03-30 10:22:04 51°32.952 2°54.594 241.1 15.3 237 21.9
2005-03-30 10:23:04 51°32.812 2°54.25 242.2 15.2 238 23.3
2005-03-30 10:24:05 51°32.67 2°53.905 241.3 15.4 236 23.8
2005-03-30 10:25:04 51°32.531 2°53.566 240.4 15.3 238 24.6
2005-03-30 10:26:04 51°32.391 2°53.226 241.7 15.2 237 23.1
2005-03-30 10:27:05 51°32.247 2°52.878 240.6 15.4 234 25
2005-03-30 10:28:04 51°32.109 2°52.543 241 15.3 236 23.8
2005-03-30 10:29:04 51°31.969 2°52.2 242 15.2 238 24
2005-03-30 10:30:04 51°31.825 2°51.86 240.4 15.4 235 26.3
2005-03-30 10:31:05 51°31.681 2°51.518 240.9 15.4 236 22.6
2005-03-30 10:32:04 51°31.547 2°51.171 243.6 15.4 239 25.4
2005-03-30 10:33:05 51°31.412 2°50.818 243.1 15.2 238 25.3
2005-03-30 10:34:05 51°31.277 2°50.471 243.1 15.4 237 27.7
2005-03-30 10:35:05 51°31.145 2°50.121 243.4 15.3 239 25.1
2005-03-30 10:36:05 51°31.011 2°49.773 242.7 15.4 239 25.4
2005-03-30 10:37:05 51°30.873 2°49.42 243 15.4 238 26
2005-03-30 10:38:05 51°30.741 2°49.072 244.4 15.5 238 23.2
2005-03-30 10:39:05 51°30.606 2°48.72 242.8 15.5 239 24.8
2005-03-30 10:40:05 51°30.47 2°48.363 243.3 15.5 238 24.2
2005-03-30 10:41:05 51°30.334 2°48.012 243.5 15.6 238 23.4
2005-03-30 10:42:05 51°30.199 2°47.657 244.7 15.4 240 23.7
2005-03-30 10:43:05 51°30.063 2°47.302 243.5 15.6 238 24.8
2005-03-30 10:44:05 51°29.928 2°46.951 243 15.5 238 25
2005-03-30 10:45:05 51°29.791 2°46.599 242.1 15.5 238 23.7
2005-03-30 10:46:05 51°29.657 2°46.248 243.8 15.5 238 22.2
2005-03-30 10:47:05 51°29.561 2°45.876 266.5 14.9 259 23.3
2005-03-30 10:48:04 51°29.599 2°45.505 303.3 14 295 21.5
2005-03-30 10:49:05 51°29.771 2°45.308 353.1 12.6 344 26.6
2005-03-30 10:50:04 51°29.97 2°45.291 22.5 11.9 13 29.7
2005-03-30 10:51:05 51°30.136 2°45.467 39 11.9 34 28.3
2005-03-30 10:52:04 51°30.29 2°45.664 44.2 11.8 40 26.8
2005-03-30 10:53:05 51°30.427 2°45.894 52.4 11.8 49 28.6
2005-03-30 10:54:05 51°30.55 2°46.142 59.6 11.9 59 27.8
2005-03-30 10:55:05 51°30.648 2°46.413 61.1 11.7 58 25.2
2005-03-30 10:56:05 51°30.75 2°46.68 60.6 11.7 59 25.8
2005-03-30 10:57:05 51°30.851 2°46.947 60.9 11.6 59 26.8
2005-03-30 10:58:05 51°30.951 2°47.212 60.1 11.7 59 27.1
2005-03-30 10:59:05 51°31.054 2°47.479 60.7 11.7 59 28.5
2005-03-30 11:00:05 51°31.152 2°47.744 60.6 11.8 59 29.5
2005-03-30 11:01:05 51°31.253 2°48.012 60.3 11.8 59 29.5
2005-03-30 11:02:05 51°31.354 2°48.279 60.5 11.7 59 29
2005-03-30 11:03:05 51°31.454 2°48.549 60.8 11.8 58 29.8
2005-03-30 11:04:05 51°31.559 2°48.821 60 11.8 59 30.1
2005-03-30 11:05:05 51°31.66 2°49.088 60.7 11.8 59 27.8
2005-03-30 11:06:05 51°31.762 2°49.358 60.2 12 59 27.9
2005-03-30 11:07:05 51°31.864 2°49.629 60.4 11.8 60 28.6
2005-03-30 11:08:05 51°31.967 2°49.9 60.7 11.9 58 30.3
2005-03-30 11:09:05 51°32.069 2°50.17 60.8 11.9 59 30.2
2005-03-30 11:10:05 51°32.171 2°50.438 60.6 11.8 58 29.5
2005-03-30 11:11:05 51°32.273 2°50.709 60.2 11.6 59 30
2005-03-30 11:12:05 51°32.374 2°50.977 60.2 11.8 58 30.7
2005-03-30 11:13:05 51°32.474 2°51.241 60 11.6 58 30.6
2005-03-30 11:14:05 51°32.577 2°51.507 59.9 11.6 58 30.7
2005-03-30 11:15:05 51°32.68 2°51.774 60.7 11.7 60 28.3
2005-03-30 11:16:05 51°32.781 2°52.044 60.8 11.8 59 27.5
2005-03-30 11:17:05 51°32.883 2°52.31 60 11.6 58 28.7
2005-03-30 11:18:05 51°32.984 2°52.58 60.9 11.7 59 28.4
2005-03-30 11:19:05 51°33.084 2°52.845 60.4 11.8 59 29.6
2005-03-30 11:20:05 51°33.104 2°53.155 95.9 12.4 101 27.7
2005-03-30 11:21:05 51°33.057 2°53.48 98.6 12.4 100 27.1
2005-03-30 11:22:05 51°33.006 2°53.807 98.6 12.6 104 25.6
2005-03-30 11:23:05 51°32.951 2°54.134 101.9 12.9 110 25.6
2005-03-30 11:24:05 51°32.808 2°54.409 134.1 13.8 139 21.3
2005-03-30 11:25:05 51°32.627 2°54.646 136 14.2 143 23.2
2005-03-30 11:26:05 51°32.418 2°54.834 150 14.4 154 22.7
2005-03-30 11:27:05 51°32.202 2°55.011 148.9 14.8 153 22
2005-03-30 11:28:05 51°31.987 2°55.188 148.2 14.5 151 20.1
2005-03-30 11:29:04 51°31.775 2°55.372 149.7 14.6 153 20.1
2005-03-30 11:30:05 51°31.558 2°55.557 148.1 14.8 153 17.4
2005-03-30 11:31:04 51°31.351 2°55.758 145.5 14.7 147 17.7
2005-03-30 11:32:05 51°31.145 2°55.968 144.8 14.6 148 25.4
2005-03-30 11:33:05 51°30.94 2°56.18 143.3 14.4 147 33
2005-03-30 11:34:05 51°30.739 2°56.367 144.3 13.9 148 31.4
2005-03-30 11:35:05 51°30.542 2°56.563 143.7 13.8 147 30.6
2005-03-30 11:36:05 51°30.35 2°56.754 144.1 13.6 147 29.8
2005-03-30 11:37:05 51°30.148 2°56.926 151.6 13.9 161 28.3
2005-03-30 11:38:05 51°29.919 2°57.026 163 14.3 167 26.8
2005-03-30 11:39:05 51°29.688 2°57.097 166.5 14.2 171 25.8
2005-03-30 11:40:05 51°29.445 2°57.123 177.1 14.8 179 24.1
2005-03-30 11:41:05 51°29.2 2°57.069 190.9 15 193 23.4
2005-03-30 11:42:05 51°28.96 2°56.971 192.5 14.9 194 24.8
2005-03-30 11:43:05 51°28.719 2°56.877 191.4 14.9 194 26.6
2005-03-30 11:44:05 51°28.48 2°56.782 190.3 14.7 193 26.3
2005-03-30 11:45:05 51°28.236 2°56.691 190 15 193 26.8
2005-03-30 11:46:04 51°27.997 2°56.589 193 15.3 196 27
2005-03-30 11:47:05 51°27.752 2°56.467 194.6 15.1 198 26.7
2005-03-30 11:48:05 51°27.509 2°56.35 192.2 15.5 197 27.7
2005-03-30 11:49:05 51°27.262 2°56.238 191.3 15.2 194 27.3
2005-03-30 11:50:05 51°27.015 2°56.149 191.3 15.2 193 28
2005-03-30 11:51:05 51°26.767 2°56.06 190.2 15.4 193 26.1
2005-03-30 11:52:05 51°26.518 2°55.978 190 15.2 191 23.5
2005-03-30 11:53:05 51°26.271 2°55.879 193.2 15.1 196 19.9
2005-03-30 11:54:05 51°26.022 2°55.784 193.1 15.1 195 16.5
2005-03-30 11:55:05 51°25.776 2°55.688 194.5 15.5 194 16.6
2005-03-30 11:56:05 51°25.53 2°55.604 192.8 15.1 193 16.3
2005-03-30 11:57:05 51°25.286 2°55.497 199.3 15 197 16.8
2005-03-30 11:58:05 51°25.05 2°55.374 200.3 14.7 197 19
2005-03-30 11:59:05 51°24.812 2°55.265 197.2 14.8 196 20.9
2005-03-30 12:00:05 51°24.577 2°55.16 197.3 14.9 198 22.6
2005-03-30 12:01:05 51°24.34 2°55.046 196.6 15.1 196 22.5
2005-03-30 12:02:05 51°24.1 2°54.934 194.7 15.3 196 21.4
2005-03-30 12:03:05 51°23.86 2°54.819 196.5 15.1 198 20
2005-03-30 12:04:05 51°23.619 2°54.7 195.2 14.9 195 19.6
2005-03-30 12:05:05 51°23.376 2°54.586 196.6 15 197 19.4
2005-03-30 12:06:05 51°23.131 2°54.47 195.9 15.2 195 19.4
2005-03-30 12:07:05 51°22.888 2°54.361 195.9 15.1 195 21.2
2005-03-30 12:08:05 51°22.648 2°54.248 196.7 15.2 197 22
2005-03-30 12:09:05 51°22.414 2°54.137 194.8 14.7 196 19.8
2005-03-30 12:10:05 51°22.183 2°54.026 197.4 14.4 197 18.9
2005-03-30 12:11:05 51°21.951 2°53.915 196.1 14.5 196 19
2005-03-30 12:12:05 51°21.717 2°53.804 195.9 14.9 197 16.9
2005-03-30 12:13:04 51°21.485 2°53.691 195.7 14.8 196 16.4
2005-03-30 12:14:05 51°21.245 2°53.58 194.5 15 197 16.4
2005-03-30 12:15:05 51°21.005 2°53.463 195.9 14.8 196 16.4
2005-03-30 12:16:05 51°20.769 2°53.35 197.4 15 198 16.5
2005-03-30 12:17:05 51°20.531 2°53.25 194.5 14.8 196 16.4
2005-03-30 12:18:05 51°20.291 2°53.153 192.8 14.9 195 16.3
2005-03-30 12:19:05 51°20.052 2°53.054 193.1 14.8 195 16
2005-03-30 12:20:05 51°19.814 2°52.957 192.3 14.6 194 15.8
2005-03-30 12:21:05 51°19.576 2°52.86 193.2 14.9 195 14.9
2005-03-30 12:22:05 51°19.335 2°52.755 193.7 14.9 196 14.1
2005-03-30 12:23:05 51°19.1 2°52.661 192.8 14.7 194 13.3
2005-03-30 12:24:05 51°18.865 2°52.562 191.6 14.7 193 12.4
2005-03-30 12:25:05 51°18.627 2°52.507 184.3 14.5 186 11.8
2005-03-30 12:26:05 51°18.387 2°52.474 184.6 14.5 185 11.3
2005-03-30 12:27:05 51°18.148 2°52.436 185.5 14.6 185 10.9
2005-03-30 12:28:05 51°17.906 2°52.401 185.1 14.3 185 10.6
2005-03-30 12:29:05 51°17.665 2°52.388 178.2 14.4 179 10.5
2005-03-30 12:30:05 51°17.427 2°52.396 179.2 14.4 179 10.6
2005-03-30 12:31:05 51°17.187 2°52.396 180.1 14.3 181 10.3
2005-03-30 12:32:04 51°16.957 2°52.451 164.4 14 165 9.9
2005-03-30 12:33:05 51°16.736 2°52.575 159.7 13.9 159 10.1
2005-03-30 12:34:05 51°16.523 2°52.746 151.6 13.9 152 12.1
2005-03-30 12:35:05 51°16.314 2°52.914 154.1 14 154 12.7
2005-03-30 12:36:05 51°16.105 2°53.078 153.6 14 154 12.3
2005-03-30 12:37:05 51°15.892 2°53.237 154.2 14 156 12
2005-03-30 12:38:05 51°15.685 2°53.395 153.2 13.9 154 11.4
2005-03-30 12:39:05 51°15.476 2°53.553 154 14.1 155 10.9
2005-03-30 12:40:05 51°15.275 2°53.707 152.1 13.6 156 10.2
2005-03-30 12:41:05 51°15.082 2°53.897 143.9 13.6 142 9.8
2005-03-30 12:42:05 51°14.906 2°54.125 143.7 13.7 143 9.4
2005-03-30 12:43:05 51°14.735 2°54.353 139.9 13.3 139 10.7
2005-03-30 12:44:05 51°14.592 2°54.572 132 11.8 129 10.7
2005-03-30 12:45:05 51°14.473 2°54.818 128.3 11.6 126 11.1
2005-03-30 12:46:05 51°14.37 2°55.044 128.3 8.8 126 10.9
2005-03-30 12:47:05 51°14.297 2°55.204 130.2 7.1 127 10.8
2005-03-30 12:48:05 51°14.212 2°55.336 147.2 6.6 144 11.1
2005-03-30 12:49:05 51°14.125 2°55.415 157.7 5.5 153 10.3
2005-03-30 12:50:05 51°14.059 2°55.466 146.2 4 148 10.2
2005-03-30 12:51:05 51°14.018 2°55.526 142.5 2.5 139 10.8
2005-03-30 12:52:05 51°13.989 2°55.556 154.3 1.9 151 11.5
2005-03-30 12:53:05 51°13.974 2°55.566 166.2 0.9 165 10.9
2005-03-30 12:54:05 51°13.952 2°55.574 171.5 1.9 168 10.8
2005-03-30 12:55:05 51°13.887 2°55.606 161.9 5.4 159 10.7
2005-03-30 12:56:05 51°13.792 2°55.674 154.3 6.8 153 10.7
2005-03-30 12:57:05 51°13.714 2°55.781 134.2 5.3 131 -999
2005-03-30 12:58:05 51°13.669 2°55.88 125.5 4.3 123 9.9
2005-03-30 12:59:05 51°13.632 2°55.974 123.5 3.9 121 10
2005-03-30 13:00:05 51°13.607 2°56.055 114.1 3 113 10
2005-03-30 13:01:05 51°13.595 2°56.1 118.4 0.9 118 8